Details for CityJet at EIDW




Go Back


Latest METAR
Local Time

EIDW 232330Z 16013KT 9999 FEW020 BKN025 04/M02 Q1017 NOSIG

24/02/2018, 00:02:01

Description
Results
CityJet Logo
Number of Pilots based at EIDW
0 Pilots Based here
Number of CityJet Flights Departed from EIDW
0 Flights Departed
Number of CityJet Flights Arrived at EIDW
1 Flights Arrived
Number of CityJet Schedules Departing from EIDW
13 Schedules
Number of CityJet Schedules Arriving at EIDW
13 Schedules
Number of CityJet Schedules Departing from EIDW availible today
1 Schedules Today
Number of CityJet Schedules Arriving at EIDW availible today
1 Schedules Today
Average Landing Rate at EIDW
-224 fpm
CityJet Average Landing Rate at EIDW
-418 fpm
Total Fuel Purchased at EIDW by CityJet
0.00 kgs / 0.00 lbs

Pilots Based at EIDW


Pilot ID
Pilot Name
Pilot Rank
No. of Flights
No. of Flying Hours
There are no pilots assigned to this hub!   Will you be the first?
Content